sensor_id;sensor_type;location;lat;lon;timestamp;temperature;humidity
40638;DHT22;26336;44.696;10.622;2023-03-01T00:02:09;6.00;99.90
40638;DHT22;26336;44.696;10.622;2023-03-01T00:05:12;6.00;99.90
40638;DHT22;26336;44.696;10.622;2023-03-01T00:08:16;6.00;99.90
40638;DHT22;26336;44.696;10.622;2023-03-01T00:11:24;6.00;99.90
40638;DHT22;26336;44.696;10.622;2023-03-01T00:14:29;6.00;99.90
40638;DHT22;26336;44.696;10.622;2023-03-01T00:17:33;6.00;99.90
40638;DHT22;26336;44.696;10.622;2023-03-01T00:20:37;6.00;99.90
40638;DHT22;26336;44.696;10.622;2023-03-01T00:23:41;6.00;99.90
40638;DHT22;26336;44.696;10.622;2023-03-01T00:26:45;6.00;99.90
40638;DHT22;26336;44.696;10.622;2023-03-01T00:29:49;6.00;99.90
40638;DHT22;26336;44.696;10.622;2023-03-01T00:32:53;6.00;99.90
40638;DHT22;26336;44.696;10.622;2023-03-01T00:35:58;6.00;99.90
40638;DHT22;26336;44.696;10.622;2023-03-01T00:39:07;6.00;99.90
40638;DHT22;26336;44.696;10.622;2023-03-01T00:42:11;5.90;99.90
40638;DHT22;26336;44.696;10.622;2023-03-01T00:45:15;5.90;99.90
40638;DHT22;26336;44.696;10.622;2023-03-01T00:48:19;5.90;99.90
40638;DHT22;26336;44.696;10.622;2023-03-01T00:51:26;5.90;99.90
40638;DHT22;26336;44.696;10.622;2023-03-01T00:54:30;6.00;99.90
40638;DHT22;26336;44.696;10.622;2023-03-01T00:57:34;6.00;99.90
40638;DHT22;26336;44.696;10.622;2023-03-01T01:00:38;6.00;99.90
40638;DHT22;26336;44.696;10.622;2023-03-01T01:03:52;6.00;99.90
40638;DHT22;26336;44.696;10.622;2023-03-01T01:06:56;6.10;99.90
40638;DHT22;26336;44.696;10.622;2023-03-01T01:09:59;6.10;99.90
40638;DHT22;26336;44.696;10.622;2023-03-01T01:13:03;6.00;99.90
40638;DHT22;26336;44.696;10.622;2023-03-01T01:16:08;6.00;99.90
40638;DHT22;26336;44.696;10.622;2023-03-01T01:19:12;5.90;99.90
40638;DHT22;26336;44.696;10.622;2023-03-01T01:22:16;5.90;99.90
40638;DHT22;26336;44.696;10.622;2023-03-01T01:25:21;5.90;99.90
40638;DHT22;26336;44.696;10.622;2023-03-01T01:28:25;5.90;99.90
40638;DHT22;26336;44.696;10.622;2023-03-01T01:31:28;5.90;99.90
40638;DHT22;26336;44.696;10.622;2023-03-01T01:34:34;5.70;99.90
40638;DHT22;26336;44.696;10.622;2023-03-01T01:37:38;5.70;99.90
40638;DHT22;26336;44.696;10.622;2023-03-01T01:40:46;5.70;99.90
40638;DHT22;26336;44.696;10.622;2023-03-01T01:47:20;5.70;99.90
40638;DHT22;26336;44.696;10.622;2023-03-01T01:50:26;5.70;99.90
40638;DHT22;26336;44.696;10.622;2023-03-01T01:53:30;5.70;99.90
40638;DHT22;26336;44.696;10.622;2023-03-01T01:56:36;5.80;99.90
40638;DHT22;26336;44.696;10.622;2023-03-01T01:59:44;5.80;99.90
40638;DHT22;26336;44.696;10.622;2023-03-01T02:02:52;5.80;99.90
40638;DHT22;26336;44.696;10.622;2023-03-01T02:06:30;5.90;99.90
40638;DHT22;26336;44.696;10.622;2023-03-01T02:09:35;5.90;99.90
40638;DHT22;26336;44.696;10.622;2023-03-01T02:12:39;5.90;99.90
40638;DHT22;26336;44.696;10.622;2023-03-01T02:15:43;5.80;99.90
40638;DHT22;26336;44.696;10.622;2023-03-01T02:18:49;5.90;99.90
40638;DHT22;26336;44.696;10.622;2023-03-01T02:22:33;5.90;99.90
40638;DHT22;26336;44.696;10.622;2023-03-01T02:28:38;6.00;99.90
40638;DHT22;26336;44.696;10.622;2023-03-01T02:31:42;6.00;99.90
40638;DHT22;26336;44.696;10.622;2023-03-01T02:34:48;6.00;99.90
40638;DHT22;26336;44.696;10.622;2023-03-01T02:37:53;5.80;99.90
40638;DHT22;26336;44.696;10.622;2023-03-01T02:41:02;5.70;99.90
40638;DHT22;26336;44.696;10.622;2023-03-01T02:44:07;5.70;99.90
40638;DHT22;26336;44.696;10.622;2023-03-01T02:47:12;5.60;99.90
40638;DHT22;26336;44.696;10.622;2023-03-01T02:57:00;5.50;99.90
40638;DHT22;26336;44.696;10.622;2023-03-01T03:00:10;5.50;99.90
40638;DHT22;26336;44.696;10.622;2023-03-01T03:03:23;5.60;99.90
40638;DHT22;26336;44.696;10.622;2023-03-01T03:06:27;5.50;99.90
40638;DHT22;26336;44.696;10.622;2023-03-01T03:09:31;5.60;99.90
40638;DHT22;26336;44.696;10.622;2023-03-01T03:12:35;5.60;99.90
40638;DHT22;26336;44.696;10.622;2023-03-01T03:15:41;5.70;99.90
40638;DHT22;26336;44.696;10.622;2023-03-01T03:18:45;5.70;99.90
40638;DHT22;26336;44.696;10.622;2023-03-01T03:21:49;5.70;99.90
40638;DHT22;26336;44.696;10.622;2023-03-01T03:24:53;5.70;99.90
40638;DHT22;26336;44.696;10.622;2023-03-01T03:27:57;5.80;99.90
40638;DHT22;26336;44.696;10.622;2023-03-01T03:31:02;5.90;99.90
40638;DHT22;26336;44.696;10.622;2023-03-01T03:34:08;5.80;99.90
40638;DHT22;26336;44.696;10.622;2023-03-01T03:37:20;5.80;99.90
40638;DHT22;26336;44.696;10.622;2023-03-01T03:40:48;5.90;99.90
40638;DHT22;26336;44.696;10.622;2023-03-01T03:43:52;5.90;99.90
40638;DHT22;26336;44.696;10.622;2023-03-01T03:46:56;5.90;99.90
40638;DHT22;26336;44.696;10.622;2023-03-01T03:50:01;5.90;99.90
40638;DHT22;26336;44.696;10.622;2023-03-01T03:53:10;5.90;99.90
40638;DHT22;26336;44.696;10.622;2023-03-01T03:56:15;5.90;99.90
40638;DHT22;26336;44.696;10.622;2023-03-01T03:59:19;6.00;99.90
40638;DHT22;26336;44.696;10.622;2023-03-01T04:02:23;6.00;99.90
40638;DHT22;26336;44.696;10.622;2023-03-01T04:05:27;5.90;99.90
40638;DHT22;26336;44.696;10.622;2023-03-01T04:08:31;5.90;99.90
40638;DHT22;26336;44.696;10.622;2023-03-01T04:11:35;6.00;99.90
40638;DHT22;26336;44.696;10.622;2023-03-01T04:14:39;6.00;99.90
40638;DHT22;26336;44.696;10.622;2023-03-01T04:17:45;6.00;99.90
40638;DHT22;26336;44.696;10.622;2023-03-01T04:20:50;6.00;99.90
40638;DHT22;26336;44.696;10.622;2023-03-01T04:23:55;5.90;99.90
40638;DHT22;26336;44.696;10.622;2023-03-01T04:27:00;5.90;99.90
40638;DHT22;26336;44.696;10.622;2023-03-01T04:30:04;5.90;99.90
40638;DHT22;26336;44.696;10.622;2023-03-01T04:33:09;5.90;99.90
40638;DHT22;26336;44.696;10.622;2023-03-01T04:36:15;5.80;99.90
40638;DHT22;26336;44.696;10.622;2023-03-01T04:39:21;5.80;99.90
40638;DHT22;26336;44.696;10.622;2023-03-01T04:42:25;5.80;99.90
40638;DHT22;26336;44.696;10.622;2023-03-01T04:45:29;5.80;99.90
40638;DHT22;26336;44.696;10.622;2023-03-01T04:48:35;5.80;99.90
40638;DHT22;26336;44.696;10.622;2023-03-01T04:51:39;5.80;99.90
40638;DHT22;26336;44.696;10.622;2023-03-01T04:54:43;5.80;99.90
40638;DHT22;26336;44.696;10.622;2023-03-01T04:57:47;5.80;99.90
40638;DHT22;26336;44.696;10.622;2023-03-01T05:00:52;5.80;99.90
40638;DHT22;26336;44.696;10.622;2023-03-01T05:03:56;5.80;99.90
40638;DHT22;26336;44.696;10.622;2023-03-01T05:07:06;5.80;99.90
40638;DHT22;26336;44.696;10.622;2023-03-01T05:10:10;5.80;99.90
40638;DHT22;26336;44.696;10.622;2023-03-01T05:13:14;5.80;99.90
40638;DHT22;26336;44.696;10.622;2023-03-01T05:16:24;5.80;99.90
40638;DHT22;26336;44.696;10.622;2023-03-01T05:19:28;5.90;99.90
40638;DHT22;26336;44.696;10.622;2023-03-01T05:22:35;5.90;99.90
40638;DHT22;26336;44.696;10.622;2023-03-01T05:25:39;5.90;99.90
40638;DHT22;26336;44.696;10.622;2023-03-01T05:28:46;5.90;99.90
40638;DHT22;26336;44.696;10.622;2023-03-01T05:31:52;5.90;99.90
40638;DHT22;26336;44.696;10.622;2023-03-01T05:34:57;5.80;99.90
40638;DHT22;26336;44.696;10.622;2023-03-01T05:38:01;5.90;99.90
40638;DHT22;26336;44.696;10.622;2023-03-01T05:41:05;5.80;99.90
40638;DHT22;26336;44.696;10.622;2023-03-01T05:44:09;5.80;99.90
40638;DHT22;26336;44.696;10.622;2023-03-01T05:47:13;5.80;99.90
40638;DHT22;26336;44.696;10.622;2023-03-01T05:50:23;5.80;99.90
40638;DHT22;26336;44.696;10.622;2023-03-01T05:53:27;5.80;99.90
40638;DHT22;26336;44.696;10.622;2023-03-01T05:56:36;5.80;99.90
40638;DHT22;26336;44.696;10.622;2023-03-01T05:59:40;5.70;99.90
40638;DHT22;26336;44.696;10.622;2023-03-01T06:02:44;5.70;99.90
40638;DHT22;26336;44.696;10.622;2023-03-01T06:05:48;5.70;99.90
40638;DHT22;26336;44.696;10.622;2023-03-01T06:08:53;5.70;99.90
40638;DHT22;26336;44.696;10.622;2023-03-01T06:11:57;5.70;99.90
40638;DHT22;26336;44.696;10.622;2023-03-01T06:15:01;5.70;99.90
40638;DHT22;26336;44.696;10.622;2023-03-01T06:18:05;5.70;99.90
40638;DHT22;26336;44.696;10.622;2023-03-01T06:21:09;5.80;99.90
40638;DHT22;26336;44.696;10.622;2023-03-01T06:24:13;5.60;99.90
40638;DHT22;26336;44.696;10.622;2023-03-01T06:27:17;5.60;99.90
40638;DHT22;26336;44.696;10.622;2023-03-01T06:30:23;5.70;99.90
40638;DHT22;26336;44.696;10.622;2023-03-01T06:33:27;5.70;99.90
40638;DHT22;26336;44.696;10.622;2023-03-01T06:36:31;5.80;99.90
40638;DHT22;26336;44.696;10.622;2023-03-01T06:39:35;5.80;99.90
40638;DHT22;26336;44.696;10.622;2023-03-01T06:42:41;5.90;99.90
40638;DHT22;26336;44.696;10.622;2023-03-01T06:45:55;5.90;99.90
40638;DHT22;26336;44.696;10.622;2023-03-01T06:48:58;5.90;99.90
40638;DHT22;26336;44.696;10.622;2023-03-01T06:52:03;5.90;99.90
40638;DHT22;26336;44.696;10.622;2023-03-01T06:55:07;5.90;99.90
40638;DHT22;26336;44.696;10.622;2023-03-01T06:58:11;5.90;99.90
40638;DHT22;26336;44.696;10.622;2023-03-01T07:01:15;5.80;99.90
40638;DHT22;26336;44.696;10.622;2023-03-01T07:04:19;5.80;99.90
40638;DHT22;26336;44.696;10.622;2023-03-01T07:07:23;5.80;99.90
40638;DHT22;26336;44.696;10.622;2023-03-01T07:10:28;5.70;99.90
40638;DHT22;26336;44.696;10.622;2023-03-01T07:13:32;5.60;99.90
40638;DHT22;26336;44.696;10.622;2023-03-01T07:16:36;5.50;99.90
40638;DHT22;26336;44.696;10.622;2023-03-01T07:19:40;5.50;99.90
40638;DHT22;26336;44.696;10.622;2023-03-01T07:22:44;5.30;99.90
40638;DHT22;26336;44.696;10.622;2023-03-01T07:25:54;5.30;99.90
40638;DHT22;26336;44.696;10.622;2023-03-01T07:29:00;5.20;99.90
40638;DHT22;26336;44.696;10.622;2023-03-01T07:32:04;5.20;99.90
40638;DHT22;26336;44.696;10.622;2023-03-01T07:35:09;5.20;99.90
40638;DHT22;26336;44.696;10.622;2023-03-01T07:38:13;5.30;99.90
40638;DHT22;26336;44.696;10.622;2023-03-01T07:41:17;5.40;99.90
40638;DHT22;26336;44.696;10.622;2023-03-01T07:44:21;5.40;99.90
40638;DHT22;26336;44.696;10.622;2023-03-01T07:47:25;5.30;99.90
40638;DHT22;26336;44.696;10.622;2023-03-01T07:50:29;5.30;99.90
40638;DHT22;26336;44.696;10.622;2023-03-01T07:53:33;5.20;99.90
40638;DHT22;26336;44.696;10.622;2023-03-01T07:56:38;5.20;99.90
40638;DHT22;26336;44.696;10.622;2023-03-01T07:59:42;5.20;99.90
40638;DHT22;26336;44.696;10.622;2023-03-01T08:02:46;5.10;99.90
40638;DHT22;26336;44.696;10.622;2023-03-01T08:05:49;5.10;99.90
40638;DHT22;26336;44.696;10.622;2023-03-01T08:08:53;5.10;99.90
40638;DHT22;26336;44.696;10.622;2023-03-01T08:12:01;5.00;99.90
40638;DHT22;26336;44.696;10.622;2023-03-01T08:15:06;5.00;99.90
40638;DHT22;26336;44.696;10.622;2023-03-01T08:18:10;4.90;99.90
40638;DHT22;26336;44.696;10.622;2023-03-01T08:21:16;4.90;99.90
40638;DHT22;26336;44.696;10.622;2023-03-01T08:24:21;4.80;99.90
40638;DHT22;26336;44.696;10.622;2023-03-01T08:27:24;4.80;99.90
40638;DHT22;26336;44.696;10.622;2023-03-01T08:30:29;4.80;99.90
40638;DHT22;26336;44.696;10.622;2023-03-01T08:33:33;4.80;99.90
40638;DHT22;26336;44.696;10.622;2023-03-01T08:36:39;4.70;99.90
40638;DHT22;26336;44.696;10.622;2023-03-01T08:39:43;4.80;99.90
40638;DHT22;26336;44.696;10.622;2023-03-01T08:42:47;4.90;99.90
40638;DHT22;26336;44.696;10.622;2023-03-01T08:45:52;4.90;99.90
40638;DHT22;26336;44.696;10.622;2023-03-01T08:48:56;4.80;99.90
40638;DHT22;26336;44.696;10.622;2023-03-01T08:52:01;4.70;99.90
40638;DHT22;26336;44.696;10.622;2023-03-01T08:55:06;4.80;99.90
40638;DHT22;26336;44.696;10.622;2023-03-01T08:58:10;4.90;99.90
40638;DHT22;26336;44.696;10.622;2023-03-01T09:01:16;4.90;99.90
40638;DHT22;26336;44.696;10.622;2023-03-01T09:04:20;5.00;99.90
40638;DHT22;26336;44.696;10.622;2023-03-01T09:07:25;5.00;99.90
40638;DHT22;26336;44.696;10.622;2023-03-01T09:10:32;5.10;99.90
40638;DHT22;26336;44.696;10.622;2023-03-01T09:13:36;5.10;99.90
40638;DHT22;26336;44.696;10.622;2023-03-01T09:16:40;5.00;99.90
40638;DHT22;26336;44.696;10.622;2023-03-01T09:19:44;5.00;99.90
40638;DHT22;26336;44.696;10.622;2023-03-01T09:22:48;5.00;99.90
40638;DHT22;26336;44.696;10.622;2023-03-01T09:25:52;5.10;99.90
40638;DHT22;26336;44.696;10.622;2023-03-01T09:28:57;5.10;99.90
40638;DHT22;26336;44.696;10.622;2023-03-01T09:32:01;5.10;99.90
40638;DHT22;26336;44.696;10.622;2023-03-01T09:35:05;5.20;99.90
40638;DHT22;26336;44.696;10.622;2023-03-01T09:38:09;5.10;99.90
40638;DHT22;26336;44.696;10.622;2023-03-01T09:45:27;5.20;99.90
40638;DHT22;26336;44.696;10.622;2023-03-01T09:48:43;5.20;99.90
40638;DHT22;26336;44.696;10.622;2023-03-01T09:55:43;5.20;99.90
40638;DHT22;26336;44.696;10.622;2023-03-01T09:59:49;5.20;99.90
40638;DHT22;26336;44.696;10.622;2023-03-01T10:09:14;5.30;99.90
40638;DHT22;26336;44.696;10.622;2023-03-01T10:12:24;5.40;99.90
40638;DHT22;26336;44.696;10.622;2023-03-01T10:15:51;5.40;99.90
40638;DHT22;26336;44.696;10.622;2023-03-01T10:19:01;5.40;99.90
40638;DHT22;26336;44.696;10.622;2023-03-01T10:22:27;5.50;99.90
40638;DHT22;26336;44.696;10.622;2023-03-01T10:31:55;5.60;99.90
40638;DHT22;26336;44.696;10.622;2023-03-01T10:34:59;5.50;99.90
40638;DHT22;26336;44.696;10.622;2023-03-01T10:38:04;5.60;99.90
40638;DHT22;26336;44.696;10.622;2023-03-01T10:41:09;5.60;99.90
40638;DHT22;26336;44.696;10.622;2023-03-01T10:44:39;5.70;99.90
40638;DHT22;26336;44.696;10.622;2023-03-01T10:47:44;5.70;99.90
40638;DHT22;26336;44.696;10.622;2023-03-01T10:51:12;5.70;99.90
40638;DHT22;26336;44.696;10.622;2023-03-01T10:54:29;5.70;99.90
40638;DHT22;26336;44.696;10.622;2023-03-01T10:57:37;5.70;99.90
40638;DHT22;26336;44.696;10.622;2023-03-01T11:00:51;5.70;99.90
40638;DHT22;26336;44.696;10.622;2023-03-01T11:07:09;5.70;99.90
40638;DHT22;26336;44.696;10.622;2023-03-01T11:10:27;5.80;99.90
40638;DHT22;26336;44.696;10.622;2023-03-01T11:13:31;5.80;99.90
40638;DHT22;26336;44.696;10.622;2023-03-01T11:16:38;5.80;99.90
40638;DHT22;26336;44.696;10.622;2023-03-01T11:19:43;5.80;99.90
40638;DHT22;26336;44.696;10.622;2023-03-01T11:23:08;5.80;99.90
40638;DHT22;26336;44.696;10.622;2023-03-01T11:26:15;5.80;99.90
40638;DHT22;26336;44.696;10.622;2023-03-01T11:32:39;5.80;99.90
40638;DHT22;26336;44.696;10.622;2023-03-01T11:39:29;5.70;99.90
40638;DHT22;26336;44.696;10.622;2023-03-01T11:42:42;5.70;99.90
40638;DHT22;26336;44.696;10.622;2023-03-01T12:13:23;5.50;99.90
40638;DHT22;26336;44.696;10.622;2023-03-01T12:16:54;5.50;99.90
40638;DHT22;26336;44.696;10.622;2023-03-01T12:26:57;5.40;99.90
40638;DHT22;26336;44.696;10.622;2023-03-01T12:43:54;5.20;99.90
40638;DHT22;26336;44.696;10.622;2023-03-01T12:50:21;5.10;99.90
40638;DHT22;26336;44.696;10.622;2023-03-01T12:53:36;5.10;99.90
40638;DHT22;26336;44.696;10.622;2023-03-01T12:56:43;5.10;99.90
40638;DHT22;26336;44.696;10.622;2023-03-01T13:06:54;5.10;99.90
40638;DHT22;26336;44.696;10.622;2023-03-01T13:10:24;5.10;99.90
40638;DHT22;26336;44.696;10.622;2023-03-01T13:13:30;5.10;99.90
40638;DHT22;26336;44.696;10.622;2023-03-01T13:16:41;5.10;99.90
40638;DHT22;26336;44.696;10.622;2023-03-01T13:19:57;5.20;99.90
40638;DHT22;26336;44.696;10.622;2023-03-01T13:23:08;5.20;99.90
40638;DHT22;26336;44.696;10.622;2023-03-01T13:26:17;5.10;99.90
40638;DHT22;26336;44.696;10.622;2023-03-01T13:29:28;5.10;99.90
40638;DHT22;26336;44.696;10.622;2023-03-01T13:32:46;5.10;99.90
40638;DHT22;26336;44.696;10.622;2023-03-01T13:35:50;5.10;99.90
40638;DHT22;26336;44.696;10.622;2023-03-01T13:38:56;5.00;99.90
40638;DHT22;26336;44.696;10.622;2023-03-01T13:42:25;5.00;99.90
40638;DHT22;26336;44.696;10.622;2023-03-01T13:45:39;5.00;99.90
40638;DHT22;26336;44.696;10.622;2023-03-01T13:48:47;5.00;99.90
40638;DHT22;26336;44.696;10.622;2023-03-01T13:51:55;5.00;99.90
40638;DHT22;26336;44.696;10.622;2023-03-01T13:54:59;4.90;99.90
40638;DHT22;26336;44.696;10.622;2023-03-01T14:04:36;4.90;99.90
40638;DHT22;26336;44.696;10.622;2023-03-01T14:07:51;4.80;99.90
40638;DHT22;26336;44.696;10.622;2023-03-01T14:17:38;4.60;99.90
40638;DHT22;26336;44.696;10.622;2023-03-01T14:20:45;4.50;99.90
40638;DHT22;26336;44.696;10.622;2023-03-01T14:23:54;4.60;99.90
40638;DHT22;26336;44.696;10.622;2023-03-01T14:27:01;4.60;99.90
40638;DHT22;26336;44.696;10.622;2023-03-01T14:30:17;4.60;99.90
40638;DHT22;26336;44.696;10.622;2023-03-01T14:33:32;4.60;99.90
40638;DHT22;26336;44.696;10.622;2023-03-01T14:36:45;4.60;99.90
40638;DHT22;26336;44.696;10.622;2023-03-01T14:39:50;4.60;99.90
40638;DHT22;26336;44.696;10.622;2023-03-01T14:42:55;4.50;99.90
40638;DHT22;26336;44.696;10.622;2023-03-01T14:46:00;4.50;99.90
40638;DHT22;26336;44.696;10.622;2023-03-01T14:52:21;4.50;99.90
40638;DHT22;26336;44.696;10.622;2023-03-01T14:55:37;4.50;99.90
40638;DHT22;26336;44.696;10.622;2023-03-01T14:58:44;4.50;99.90
40638;DHT22;26336;44.696;10.622;2023-03-01T15:01:49;4.40;99.90
40638;DHT22;26336;44.696;10.622;2023-03-01T15:04:57;4.30;99.90
40638;DHT22;26336;44.696;10.622;2023-03-01T15:08:04;4.20;99.90
40638;DHT22;26336;44.696;10.622;2023-03-01T15:14:42;3.90;99.90
40638;DHT22;26336;44.696;10.622;2023-03-01T15:17:55;4.00;99.90
40638;DHT22;26336;44.696;10.622;2023-03-01T15:21:15;4.10;99.90
40638;DHT22;26336;44.696;10.622;2023-03-01T15:24:23;4.20;99.90
40638;DHT22;26336;44.696;10.622;2023-03-01T15:27:28;4.30;99.90
40638;DHT22;26336;44.696;10.622;2023-03-01T15:30:34;4.30;99.90
40638;DHT22;26336;44.696;10.622;2023-03-01T15:33:41;4.30;99.90
40638;DHT22;26336;44.696;10.622;2023-03-01T15:36:52;4.40;99.90
40638;DHT22;26336;44.696;10.622;2023-03-01T15:39:57;4.40;99.90
40638;DHT22;26336;44.696;10.622;2023-03-01T15:43:04;4.40;99.90
40638;DHT22;26336;44.696;10.622;2023-03-01T15:46:21;4.30;99.90
40638;DHT22;26336;44.696;10.622;2023-03-01T15:52:41;4.40;99.90
40638;DHT22;26336;44.696;10.622;2023-03-01T15:55:46;4.40;99.90
40638;DHT22;26336;44.696;10.622;2023-03-01T15:58:57;4.40;99.90
40638;DHT22;26336;44.696;10.622;2023-03-01T16:02:01;4.40;99.90
40638;DHT22;26336;44.696;10.622;2023-03-01T16:05:12;4.40;99.90
40638;DHT22;26336;44.696;10.622;2023-03-01T16:08:20;4.40;99.90
40638;DHT22;26336;44.696;10.622;2023-03-01T16:11:24;4.50;99.90
40638;DHT22;26336;44.696;10.622;2023-03-01T16:14:28;4.50;99.90
40638;DHT22;26336;44.696;10.622;2023-03-01T16:17:32;4.40;99.90
40638;DHT22;26336;44.696;10.622;2023-03-01T16:20:36;4.20;99.90
40638;DHT22;26336;44.696;10.622;2023-03-01T16:23:40;4.20;99.90
40638;DHT22;26336;44.696;10.622;2023-03-01T16:26:44;4.20;99.90
40638;DHT22;26336;44.696;10.622;2023-03-01T16:29:48;4.20;99.90
40638;DHT22;26336;44.696;10.622;2023-03-01T16:32:52;4.20;99.90
40638;DHT22;26336;44.696;10.622;2023-03-01T16:35:56;4.20;99.90
40638;DHT22;26336;44.696;10.622;2023-03-01T16:39:00;4.30;99.90
40638;DHT22;26336;44.696;10.622;2023-03-01T16:42:04;4.30;99.90
40638;DHT22;26336;44.696;10.622;2023-03-01T16:45:09;4.30;99.90
40638;DHT22;26336;44.696;10.622;2023-03-01T16:48:14;4.30;99.90
40638;DHT22;26336;44.696;10.622;2023-03-01T16:51:19;4.30;99.90
40638;DHT22;26336;44.696;10.622;2023-03-01T16:54:23;4.20;99.90
40638;DHT22;26336;44.696;10.622;2023-03-01T16:57:27;4.20;99.90
40638;DHT22;26336;44.696;10.622;2023-03-01T17:00:31;4.30;99.90
40638;DHT22;26336;44.696;10.622;2023-03-01T17:03:35;4.30;99.90
40638;DHT22;26336;44.696;10.622;2023-03-01T17:06:39;4.30;99.90
40638;DHT22;26336;44.696;10.622;2023-03-01T17:09:43;4.30;99.90
40638;DHT22;26336;44.696;10.622;2023-03-01T17:12:50;4.30;99.90
40638;DHT22;26336;44.696;10.622;2023-03-01T17:15:57;4.30;99.90
40638;DHT22;26336;44.696;10.622;2023-03-01T17:19:01;4.30;99.90
40638;DHT22;26336;44.696;10.622;2023-03-01T17:22:06;4.30;99.90
40638;DHT22;26336;44.696;10.622;2023-03-01T17:25:11;4.30;99.90
40638;DHT22;26336;44.696;10.622;2023-03-01T17:28:16;4.30;99.90
40638;DHT22;26336;44.696;10.622;2023-03-01T17:31:21;4.30;99.90
40638;DHT22;26336;44.696;10.622;2023-03-01T17:34:25;4.30;99.90
40638;DHT22;26336;44.696;10.622;2023-03-01T17:37:29;4.30;99.90
40638;DHT22;26336;44.696;10.622;2023-03-01T17:40:33;4.30;99.90
40638;DHT22;26336;44.696;10.622;2023-03-01T17:43:38;4.30;99.90
40638;DHT22;26336;44.696;10.622;2023-03-01T17:46:42;4.30;99.90
40638;DHT22;26336;44.696;10.622;2023-03-01T17:49:46;4.30;99.90
40638;DHT22;26336;44.696;10.622;2023-03-01T17:52:50;4.30;99.90
40638;DHT22;26336;44.696;10.622;2023-03-01T17:56:00;4.30;99.90
40638;DHT22;26336;44.696;10.622;2023-03-01T17:59:07;4.30;99.90
40638;DHT22;26336;44.696;10.622;2023-03-01T18:02:12;4.40;99.90
40638;DHT22;26336;44.696;10.622;2023-03-01T18:05:17;4.30;99.90
40638;DHT22;26336;44.696;10.622;2023-03-01T18:08:21;4.30;99.90
40638;DHT22;26336;44.696;10.622;2023-03-01T18:11:25;4.30;99.90
40638;DHT22;26336;44.696;10.622;2023-03-01T18:14:30;4.30;99.90
40638;DHT22;26336;44.696;10.622;2023-03-01T18:17:36;4.20;99.90
40638;DHT22;26336;44.696;10.622;2023-03-01T18:20:41;4.20;99.90
40638;DHT22;26336;44.696;10.622;2023-03-01T18:23:44;4.20;99.90
40638;DHT22;26336;44.696;10.622;2023-03-01T18:26:48;4.30;99.90
40638;DHT22;26336;44.696;10.622;2023-03-01T18:29:52;4.30;99.90
40638;DHT22;26336;44.696;10.622;2023-03-01T18:32:57;4.30;99.90
40638;DHT22;26336;44.696;10.622;2023-03-01T18:36:02;4.20;99.90
40638;DHT22;26336;44.696;10.622;2023-03-01T18:39:07;4.20;99.90
40638;DHT22;26336;44.696;10.622;2023-03-01T18:42:13;4.20;99.90
40638;DHT22;26336;44.696;10.622;2023-03-01T18:45:19;4.10;99.90
40638;DHT22;26336;44.696;10.622;2023-03-01T18:48:23;4.10;99.90
40638;DHT22;26336;44.696;10.622;2023-03-01T18:51:27;4.10;99.90
40638;DHT22;26336;44.696;10.622;2023-03-01T18:54:32;4.10;99.90
40638;DHT22;26336;44.696;10.622;2023-03-01T18:57:36;4.10;99.90
40638;DHT22;26336;44.696;10.622;2023-03-01T19:00:40;4.10;99.90
40638;DHT22;26336;44.696;10.622;2023-03-01T19:03:44;4.10;99.90
40638;DHT22;26336;44.696;10.622;2023-03-01T19:06:48;4.10;99.90
40638;DHT22;26336;44.696;10.622;2023-03-01T19:09:52;4.10;99.90
40638;DHT22;26336;44.696;10.622;2023-03-01T19:12:56;4.00;99.90
40638;DHT22;26336;44.696;10.622;2023-03-01T19:16:11;4.00;99.90
40638;DHT22;26336;44.696;10.622;2023-03-01T19:19:17;3.90;99.90
40638;DHT22;26336;44.696;10.622;2023-03-01T19:22:21;4.00;99.90
40638;DHT22;26336;44.696;10.622;2023-03-01T19:25:25;3.90;99.90
40638;DHT22;26336;44.696;10.622;2023-03-01T19:28:29;3.90;99.90
40638;DHT22;26336;44.696;10.622;2023-03-01T19:31:33;3.90;99.90
40638;DHT22;26336;44.696;10.622;2023-03-01T19:34:37;4.00;99.90
40638;DHT22;26336;44.696;10.622;2023-03-01T19:37:43;4.00;99.90
40638;DHT22;26336;44.696;10.622;2023-03-01T19:40:47;4.00;99.90
40638;DHT22;26336;44.696;10.622;2023-03-01T19:43:52;4.00;99.90
40638;DHT22;26336;44.696;10.622;2023-03-01T19:46:57;4.00;99.90
40638;DHT22;26336;44.696;10.622;2023-03-01T19:50:01;4.00;99.90
40638;DHT22;26336;44.696;10.622;2023-03-01T19:53:04;3.90;99.90
40638;DHT22;26336;44.696;10.622;2023-03-01T19:56:09;3.90;99.90
40638;DHT22;26336;44.696;10.622;2023-03-01T19:59:14;3.90;99.90
40638;DHT22;26336;44.696;10.622;2023-03-01T20:02:18;3.90;99.90
40638;DHT22;26336;44.696;10.622;2023-03-01T20:05:22;3.90;99.90
40638;DHT22;26336;44.696;10.622;2023-03-01T20:08:29;3.90;99.90
40638;DHT22;26336;44.696;10.622;2023-03-01T20:11:33;3.90;99.90
40638;DHT22;26336;44.696;10.622;2023-03-01T20:14:38;3.90;99.90
40638;DHT22;26336;44.696;10.622;2023-03-01T20:17:43;4.00;99.90
40638;DHT22;26336;44.696;10.622;2023-03-01T20:20:48;4.00;99.90
40638;DHT22;26336;44.696;10.622;2023-03-01T20:23:53;4.00;99.90
40638;DHT22;26336;44.696;10.622;2023-03-01T20:26:59;4.00;99.90
40638;DHT22;26336;44.696;10.622;2023-03-01T20:30:04;3.90;99.90
40638;DHT22;26336;44.696;10.622;2023-03-01T20:33:09;4.00;99.90
40638;DHT22;26336;44.696;10.622;2023-03-01T20:36:18;3.90;99.90
40638;DHT22;26336;44.696;10.622;2023-03-01T20:39:28;4.00;99.90
40638;DHT22;26336;44.696;10.622;2023-03-01T20:42:35;3.90;99.90
40638;DHT22;26336;44.696;10.622;2023-03-01T20:45:43;3.90;99.90
40638;DHT22;26336;44.696;10.622;2023-03-01T20:48:52;3.90;99.90
40638;DHT22;26336;44.696;10.622;2023-03-01T20:51:59;4.00;99.90
40638;DHT22;26336;44.696;10.622;2023-03-01T20:55:04;4.00;99.90
40638;DHT22;26336;44.696;10.622;2023-03-01T20:58:09;4.00;99.90
40638;DHT22;26336;44.696;10.622;2023-03-01T21:01:16;4.00;99.90
40638;DHT22;26336;44.696;10.622;2023-03-01T21:04:22;4.10;99.90
40638;DHT22;26336;44.696;10.622;2023-03-01T21:07:26;4.10;99.90
40638;DHT22;26336;44.696;10.622;2023-03-01T21:10:31;4.00;99.90
40638;DHT22;26336;44.696;10.622;2023-03-01T21:13:35;4.00;99.90
40638;DHT22;26336;44.696;10.622;2023-03-01T21:16:39;4.00;99.90
40638;DHT22;26336;44.696;10.622;2023-03-01T21:19:44;4.10;99.90
40638;DHT22;26336;44.696;10.622;2023-03-01T21:22:48;4.00;99.90
40638;DHT22;26336;44.696;10.622;2023-03-01T21:26:04;4.10;99.90
40638;DHT22;26336;44.696;10.622;2023-03-01T21:29:09;4.00;99.90
40638;DHT22;26336;44.696;10.622;2023-03-01T21:32:13;4.10;99.90
40638;DHT22;26336;44.696;10.622;2023-03-01T21:35:17;4.10;99.90
40638;DHT22;26336;44.696;10.622;2023-03-01T21:38:21;4.10;99.90
40638;DHT22;26336;44.696;10.622;2023-03-01T21:41:31;4.10;99.90
40638;DHT22;26336;44.696;10.622;2023-03-01T21:44:37;4.10;99.90